Time;durP1;ratioP1;P1;durP2;ratioP2;P2;SDS_P1;SDS_P2;PMS_P1;PMS_P2;Temp;Humidity;BMP_temperature;BMP_pressure;BME280_temperature;BME280_humidity;BME280_pressure;Samples;Min_cycle;Max_cycle;Signal;HPM_P1;HPM_P2
2021/04/20 00:00:42;;;;;;;37.03;24.40;;;;;;;8.37;80.14;101528.06;5019885;28;20049;-66
2021/04/20 00:03:08;;;;;;;37.00;25.02;;;;;;;8.37;79.51;101517.69;5017031;28;20058;-65
2021/04/20 00:05:35;;;;;;;36.28;25.23;;;;;;;8.35;79.20;101510.78;5032805;28;20137;-65
2021/04/20 00:08:01;;;;;;;35.30;24.83;;;;;;;8.33;79.48;101518.56;5024978;28;20076;-64
2021/04/20 00:10:27;;;;;;;35.95;24.85;;;;;;;8.30;79.76;101510.75;5035453;28;20049;-66
2021/04/20 00:12:54;;;;;;;35.47;23.52;;;;;;;8.30;79.83;101505.56;5037730;28;20045;-66
2021/04/20 00:15:22;;;;;;;37.90;27.15;;;;;;;8.29;79.45;101506.44;5042789;28;20110;-66
2021/04/20 00:17:49;;;;;;;37.83;24.17;;;;;;;8.32;79.45;101505.56;5020484;28;20057;-66
2021/04/20 00:20:15;;;;;;;33.40;23.67;;;;;;;8.29;79.23;101501.25;5031044;28;20414;-66
2021/04/20 00:22:42;;;;;;;34.08;23.55;;;;;;;8.26;79.15;101506.41;5023126;28;20050;-65
2021/04/20 00:25:10;;;;;;;32.28;23.83;;;;;;;8.24;79.27;101498.66;5015525;28;20115;-66
2021/04/20 00:27:36;;;;;;;34.38;23.35;;;;;;;8.20;79.42;101501.22;4994603;28;20049;-66
2021/04/20 00:30:02;;;;;;;35.85;23.65;;;;;;;8.17;79.34;101501.22;5022482;28;21301;-65
2021/04/20 00:32:28;;;;;;;33.13;22.95;;;;;;;8.18;78.70;101498.66;5031198;28;20050;-64
2021/04/20 00:34:54;;;;;;;33.72;23.13;;;;;;;8.04;79.35;101501.16;5021803;28;20050;-66
2021/04/20 00:37:20;;;;;;;32.05;22.67;;;;;;;8.01;79.19;101496.00;5028129;28;20086;-66
2021/04/20 00:39:47;;;;;;;35.92;23.55;;;;;;;7.96;79.30;101496.81;5026132;28;20133;-65
2021/04/20 00:42:13;;;;;;;31.23;22.85;;;;;;;7.98;79.37;101484.75;5033049;28;20415;-66
2021/04/20 00:44:39;;;;;;;37.08;24.23;;;;;;;7.89;79.48;101485.56;5020502;28;20053;-65
2021/04/20 00:47:05;;;;;;;34.08;23.25;;;;;;;7.91;79.30;101487.31;5042000;28;20049;-66
2021/04/20 00:49:31;;;;;;;36.67;22.85;;;;;;;7.90;79.52;101484.72;5042391;28;20053;-65
2021/04/20 00:51:58;;;;;;;32.17;22.52;;;;;;;7.87;79.07;101484.69;5037836;28;21324;-66
2021/04/20 00:54:24;;;;;;;30.88;21.30;;;;;;;7.82;78.91;101478.66;5024296;28;20057;-65
2021/04/20 00:56:52;;;;;;;30.88;21.10;;;;;;;7.84;79.15;101487.25;5037437;28;20056;-64
2021/04/20 00:59:18;;;;;;;35.22;22.42;;;;;;;7.82;79.52;101481.22;5013448;28;20046;-64
2021/04/20 01:01:46;;;;;;;33.22;23.15;;;;;;;7.82;79.76;101479.50;5021608;28;20046;-66
2021/04/20 01:04:13;;;;;;;30.65;21.33;;;;;;;7.81;79.28;101479.50;5029782;28;20049;-65
2021/04/20 01:06:40;;;;;;;37.10;22.67;;;;;;;7.80;78.85;101483.78;5022490;28;20122;-65
2021/04/20 01:09:06;;;;;;;33.78;22.55;;;;;;;7.64;79.73;101482.84;5029591;28;20062;-64
2021/04/20 01:11:34;;;;;;;33.67;22.33;;;;;;;7.55;80.10;101481.09;5019877;28;20110;-64
2021/04/20 01:14:01;;;;;;;37.40;22.00;;;;;;;7.54;79.67;101483.66;5025156;28;20581;-65
2021/04/20 01:16:27;;;;;;;33.00;22.50;;;;;;;7.60;79.19;101481.13;5033554;28;20065;-65
2021/04/20 01:18:54;;;;;;;36.38;22.08;;;;;;;7.53;79.26;101482.81;5031373;28;20423;-65
2021/04/20 01:24:42;;;;;;;34.80;22.88;;;;;;;7.46;79.13;101486.22;5017830;28;20040;-65
2021/04/20 01:27:08;;;;;;;35.05;23.70;;;;;;;7.41;79.73;101480.16;5039152;28;20053;-65
2021/04/20 01:29:34;;;;;;;33.15;22.55;;;;;;;7.36;80.58;101487.88;5033316;28;20102;-65
2021/04/20 01:32:00;;;;;;;40.45;22.60;;;;;;;7.42;80.62;101479.28;5024121;28;20077;-65
2021/04/20 01:34:28;;;;;;;35.58;22.25;;;;;;;7.41;80.28;101481.03;5021128;28;20129;-65
2021/04/20 01:36:54;;;;;;;30.30;20.73;;;;;;;7.39;80.13;101474.09;5041420;28;20084;-65
2021/04/20 01:39:20;;;;;;;30.80;21.38;;;;;;;7.44;79.75;101477.59;5037776;28;20057;-65
2021/04/20 01:41:47;;;;;;;30.52;21.77;;;;;;;7.44;79.28;101475.84;5031675;28;20541;-65
2021/04/20 01:44:14;;;;;;;30.92;20.35;;;;;;;7.39;79.74;101474.09;5025733;28;20042;-65
2021/04/20 01:46:41;;;;;;;28.88;20.05;;;;;;;7.36;79.64;101468.91;5024588;28;20053;-64
2021/04/20 01:49:06;;;;;;;30.02;20.05;;;;;;;7.39;78.84;101474.97;5030722;28;20041;-65
2021/04/20 01:51:33;;;;;;;29.90;18.85;;;;;;;7.33;79.05;101464.59;5038369;28;20056;-64
2021/04/20 01:57:22;;;;;;;28.30;18.92;;;;;;;7.17;79.63;101468.81;5026661;28;20403;-64
2021/04/20 01:59:48;;;;;;;27.70;20.27;;;;;;;7.22;79.56;101472.28;5036499;28;20083;-63
2021/04/20 02:02:14;;;;;;;30.75;18.48;;;;;;;7.19;79.00;101466.22;5028943;28;20041;-62
2021/04/20 02:04:40;;;;;;;28.95;18.88;;;;;;;7.16;78.96;101469.66;5039633;28;20045;-65
2021/04/20 02:07:07;;;;;;;26.80;18.20;;;;;;;7.14;79.06;101466.19;5039465;28;20072;-65
2021/04/20 02:09:33;;;;;;;29.35;19.27;;;;;;;7.12;78.62;101470.47;5048385;28;20049;-65
2021/04/20 02:12:00;;;;;;;30.50;19.40;;;;;;;7.06;78.37;101473.03;5018891;28;20050;-65
2021/04/20 02:14:27;;;;;;;27.75;18.88;;;;;;;7.02;78.86;101472.16;5025200;28;20045;-65
2021/04/20 02:16:54;;;;;;;27.42;18.70;;;;;;;6.96;79.20;101472.97;5022728;28;20189;-65
2021/04/20 02:19:20;;;;;;;27.20;18.38;;;;;;;6.97;79.11;101474.69;5034536;28;20057;-64
2021/04/20 02:21:47;;;;;;;30.02;20.05;;;;;;;6.96;78.93;101466.91;5032138;28;20054;-65
2021/04/20 02:24:14;;;;;;;25.17;18.05;;;;;;;7.04;78.88;101478.19;5038048;28;20376;-65
2021/04/20 02:26:42;;;;;;;30.00;19.42;;;;;;;6.97;78.69;101469.53;5015549;28;20423;-65
2021/04/20 02:29:09;;;;;;;27.45;18.27;;;;;;;6.82;79.11;101467.69;5028188;28;20050;-65
2021/04/20 02:31:38;;;;;;;29.38;19.75;;;;;;;6.91;79.35;101461.72;5014334;28;20059;-65
2021/04/20 02:34:05;;;;;;;27.92;18.80;;;;;;;6.80;79.63;101466.81;5039657;28;20102;-64
2021/04/20 02:36:35;;;;;;;31.00;20.42;;;;;;;6.82;79.27;101467.69;5039124;28;20054;-64
2021/04/20 02:39:01;;;;;;;29.73;19.23;;;;;;;6.81;79.03;101459.91;5026216;28;20170;-64
2021/04/20 02:41:28;;;;;;;32.30;20.50;;;;;;;6.69;78.90;101461.53;5017175;28;20519;-64
2021/04/20 02:43:54;;;;;;;31.60;20.42;;;;;;;6.62;79.17;101474.41;5039480;28;20489;-64
2021/04/20 02:46:20;;;;;;;30.23;20.48;;;;;;;6.48;80.07;101466.53;5043936;28;20510;-64
2021/04/20 02:48:49;;;;;;;34.80;22.10;;;;;;;6.42;80.45;101469.03;5039842;28;20053;-63
2021/04/20 02:51:15;;;;;;;36.80;21.67;;;;;;;6.47;80.64;101463.06;5035231;28;23478;-65
2021/04/20 02:53:42;;;;;;;31.80;19.98;;;;;;;6.52;80.09;101463.09;5026850;28;20144;-65
2021/04/20 02:56:11;;;;;;;29.60;18.73;;;;;;;6.56;79.86;101464.88;5028824;28;20044;-64
2021/04/20 02:58:38;;;;;;;29.98;19.38;;;;;;;6.58;79.37;101463.19;5028146;28;20064;-65
2021/04/20 03:01:07;;;;;;;32.40;19.67;;;;;;;6.59;79.23;101462.28;5032003;28;20056;-65
2021/04/20 03:03:36;;;;;;;30.08;17.80;;;;;;;6.61;79.13;101455.44;5020799;28;20057;-65
2021/04/20 03:06:03;;;;;;;27.48;18.55;;;;;;;6.65;78.59;101461.50;5034650;28;20073;-64
2021/04/20 03:08:30;;;;;;;27.15;18.65;;;;;;;6.60;78.86;101461.44;5040959;28;20052;-65
2021/04/20 03:11:00;;;;;;;28.50;17.67;;;;;;;6.58;78.42;101468.34;5024253;28;20049;-65
2021/04/20 03:13:26;;;;;;;30.63;18.98;;;;;;;6.51;78.56;101459.66;5024619;28;20046;-64
2021/04/20 03:15:52;;;;;;;27.15;18.30;;;;;;;6.51;78.81;101467.41;5044212;28;20052;-64
2021/04/20 03:18:19;;;;;;;28.40;17.23;;;;;;;6.42;79.12;101459.59;5018640;28;20077;-64
2021/04/20 03:20:45;;;;;;;26.70;17.33;;;;;;;6.34;78.99;101459.50;5021080;28;20054;-65
2021/04/20 03:23:12;;;;;;;29.73;18.23;;;;;;;6.38;78.93;101461.28;5022835;28;20053;-64
2021/04/20 03:25:40;;;;;;;30.48;18.13;;;;;;;6.45;78.24;101462.16;5025562;28;20377;-65
2021/04/20 03:28:08;;;;;;;26.30;16.63;;;;;;;6.38;78.11;101462.97;5039825;28;20045;-64
2021/04/20 03:30:35;;;;;;;26.63;17.60;;;;;;;6.26;78.29;101466.31;5019181;28;20053;-65
2021/04/20 03:33:07;;;;;;;27.30;17.02;;;;;;;6.09;79.53;101463.53;5022292;28;20061;-65
2021/04/20 03:35:39;;;;;;;28.73;17.67;;;;;;;6.00;79.59;101471.19;5040287;28;20045;-64
2021/04/20 03:38:12;;;;;;;28.58;17.20;;;;;;;5.90;80.21;101462.41;5040818;28;20053;-65
2021/04/20 03:40:48;;;;;;;24.52;16.27;;;;;;;6.04;79.68;101460.03;5021970;28;20050;-64
2021/04/20 03:43:16;;;;;;;27.38;17.42;;;;;;;6.04;79.68;101460.03;5019983;28;20091;-65
2021/04/20 03:45:47;;;;;;;26.60;16.73;;;;;;;6.03;79.60;101453.16;5014775;28;20046;-64
2021/04/20 03:48:16;;;;;;;24.05;16.23;;;;;;;6.05;79.65;101448.84;5022584;28;20045;-65
2021/04/20 03:50:52;;;;;;;27.00;17.25;;;;;;;6.11;78.99;101448.94;5038316;28;20188;-64
2021/04/20 03:53:19;;;;;;;25.55;16.83;;;;;;;6.09;78.55;101447.19;5023628;28;20053;-64
2021/04/20 03:55:48;;;;;;;26.25;17.27;;;;;;;6.09;78.98;101448.03;5013819;28;20443;-65
2021/04/20 03:58:15;;;;;;;24.45;15.35;;;;;;;6.09;78.81;101447.19;5032303;28;20049;-65
2021/04/20 04:00:43;;;;;;;26.08;16.63;;;;;;;6.10;78.71;101444.63;5022822;28;20049;-65
2021/04/20 04:06:48;;;;;;;27.05;15.95;;;;;;;6.00;79.34;101442.78;5014667;28;20065;-65
2021/04/20 04:09:18;;;;;;;26.35;17.25;;;;;;;5.93;79.22;101441.81;5028516;28;20051;-64
2021/04/20 04:11:51;;;;;;;25.92;16.38;;;;;;;5.88;79.17;101441.75;5026118;28;20103;-65
2021/04/20 04:14:20;;;;;;;25.35;16.17;;;;;;;5.93;78.84;101435.78;5034199;28;20071;-65
2021/04/20 04:16:48;;;;;;;25.90;16.30;;;;;;;5.95;79.07;101441.81;5032458;28;20519;-65
2021/04/20 04:19:15;;;;;;;26.98;16.92;;;;;;;5.93;79.07;101438.38;5035256;28;20455;-64
2021/04/20 04:21:46;;;;;;;26.23;16.58;;;;;;;5.93;78.84;101440.94;5027964;28;20444;-65
2021/04/20 04:24:17;;;;;;;27.20;18.20;;;;;;;5.96;79.01;101438.38;5023033;28;20041;-64
2021/04/20 04:26:49;;;;;;;28.60;16.60;;;;;;;5.96;78.71;101435.81;5036509;28;20045;-66
2021/04/20 04:29:18;;;;;;;29.85;16.60;;;;;;;5.93;79.04;101439.22;5029975;28;20076;-63
2021/04/20 04:31:45;;;;;;;26.58;16.08;;;;;;;5.93;79.01;101448.69;5027881;28;20061;-63
2021/04/20 04:34:13;;;;;;;25.15;15.88;;;;;;;5.93;78.88;101451.28;5036314;28;20803;-64
2021/04/20 04:36:41;;;;;;;27.75;16.35;;;;;;;5.96;78.68;101454.75;5030169;28;20419;-64
2021/04/20 04:39:10;;;;;;;29.52;16.55;;;;;;;5.84;78.78;101444.28;5019588;28;20045;-64
2021/04/20 04:41:37;;;;;;;30.23;16.67;;;;;;;5.63;79.62;101442.31;5027547;28;20053;-65
2021/04/20 04:44:04;;;;;;;28.45;17.00;;;;;;;5.67;79.91;101441.50;5032809;28;20102;-64
2021/04/20 04:46:30;;;;;;;23.92;15.70;;;;;;;5.69;79.40;101444.97;5034217;28;20115;-67
2021/04/20 04:48:57;;;;;;;29.98;15.90;;;;;;;5.71;79.21;101445.84;5020676;28;20057;-65
2021/04/20 04:51:25;;;;;;;25.10;16.02;;;;;;;5.73;79.60;101452.75;5021486;28;20045;-65
2021/04/20 04:53:52;;;;;;;28.08;16.17;;;;;;;5.88;78.92;101444.34;5030836;28;20053;-65
2021/04/20 04:56:18;;;;;;;27.80;16.40;;;;;;;5.98;78.58;101450.50;5031569;28;20499;-63
2021/04/20 04:58:46;;;;;;;26.13;15.30;;;;;;;6.05;78.92;101451.44;5019689;28;20111;-66
2021/04/20 05:01:15;;;;;;;25.48;15.00;;;;;;;6.15;78.25;101450.69;5028279;28;20061;-63
2021/04/20 05:03:41;;;;;;;27.05;15.75;;;;;;;6.23;78.06;101445.59;5025295;28;20037;-64
2021/04/20 05:06:12;;;;;;;28.65;17.13;;;;;;;6.24;78.03;101441.31;5024410;28;20050;-61
2021/04/20 05:08:38;;;;;;;32.85;17.25;;;;;;;6.24;78.22;101449.06;5019557;28;20510;-65
2021/04/20 05:11:04;;;;;;;27.20;16.63;;;;;;;6.20;78.49;101451.59;5027124;28;20052;-65
2021/04/20 05:13:31;;;;;;;33.15;17.42;;;;;;;6.26;78.33;101452.50;5025026;28;20052;-66
2021/04/20 05:16:02;;;;;;;28.52;18.02;;;;;;;6.47;77.77;101451.88;5023808;28;20056;-64
2021/04/20 05:18:30;;;;;;;31.38;18.63;;;;;;;6.62;77.18;101446.81;5027801;28;20081;-66
2021/04/20 05:20:56;;;;;;;30.73;18.67;;;;;;;6.70;77.17;101449.47;5030512;28;20045;-65
2021/04/20 05:23:22;;;;;;;28.63;17.10;;;;;;;6.74;77.16;101453.81;5012861;28;20057;-65
2021/04/20 05:25:51;;;;;;;29.67;17.42;;;;;;;6.82;76.88;101459.06;5023021;28;20045;-64
2021/04/20 05:28:17;;;;;;;33.55;18.52;;;;;;;6.84;77.02;101455.63;5031844;28;20063;-65
2021/04/20 05:30:43;;;;;;;32.95;17.80;;;;;;;6.92;76.77;101454.81;5016074;28;20707;-67
2021/04/20 05:33:09;;;;;;;32.42;18.52;;;;;;;6.98;76.95;101452.28;5033706;28;20534;-65
2021/04/20 05:35:36;;;;;;;32.88;19.58;;;;;;;7.14;76.78;101455.84;5026819;28;20078;-65
2021/04/20 05:38:02;;;;;;;37.05;20.35;;;;;;;7.28;76.49;101450.75;5022215;28;20056;-63
2021/04/20 05:40:30;;;;;;;35.40;20.20;;;;;;;7.37;76.29;101455.97;5031070;28;20061;-66
2021/04/20 05:42:57;;;;;;;34.30;19.80;;;;;;;7.47;75.96;101450.00;5023587;28;20081;-66
2021/04/20 05:45:24;;;;;;;29.63;17.77;;;;;;;7.64;75.55;101454.38;5030509;28;20060;-65
2021/04/20 05:47:51;;;;;;;26.85;18.00;;;;;;;7.71;76.00;101448.38;5029106;28;20042;-66
2021/04/20 05:50:20;;;;;;;28.00;16.95;;;;;;;7.83;75.66;101457.06;5032116;28;20138;-66
2021/04/20 05:52:46;;;;;;;27.25;17.55;;;;;;;8.05;74.85;101450.22;5022970;28;20076;-64
2021/04/20 05:55:13;;;;;;;27.67;17.23;;;;;;;8.24;74.16;101458.88;5029031;28;20045;-67
2021/04/20 05:57:39;;;;;;;27.60;16.75;;;;;;;8.30;74.63;101465.81;5019710;28;20069;-65
2021/04/20 06:00:08;;;;;;;26.63;17.23;;;;;;;8.38;74.33;101466.72;5023260;28;20050;-66
2021/04/20 06:02:36;;;;;;;29.58;17.88;;;;;;;8.47;74.29;101465.84;5024348;28;20041;-66
2021/04/20 06:05:06;;;;;;;25.67;17.10;;;;;;;8.52;74.41;101462.44;5023018;28;20051;-65
2021/04/20 06:07:35;;;;;;;31.67;18.42;;;;;;;8.59;75.01;101463.31;5020854;28;20054;-65
2021/04/20 06:10:04;;;;;;;28.00;18.38;;;;;;;8.74;74.77;101467.63;5021028;28;20060;-67
2021/04/20 06:12:31;;;;;;;30.63;17.75;;;;;;;8.87;74.29;101465.91;5026639;28;20477;-66
2021/04/20 06:14:57;;;;;;;26.02;17.63;;;;;;;9.05;74.00;101470.22;5030028;28;20099;-65
2021/04/20 06:17:23;;;;;;;32.30;18.02;;;;;;;9.09;73.58;101469.34;5032439;28;20046;-66
2021/04/20 06:19:49;;;;;;;28.52;19.77;;;;;;;9.15;73.92;101464.16;5024272;28;20048;-66
2021/04/20 06:22:17;;;;;;;30.17;21.35;;;;;;;9.29;74.77;101468.44;5018318;28;20111;-67
2021/04/20 06:28:07;;;;;;;34.25;21.17;;;;;;;9.64;75.03;101470.94;5030707;28;20119;-66
2021/04/20 06:30:33;;;;;;;33.80;22.73;;;;;;;9.81;75.44;101470.03;5017876;28;20116;-65
2021/04/20 06:39:43;;;;;;;37.30;24.77;;;;;;;10.30;74.02;101462.84;5022541;28;20040;-63
2021/04/20 06:42:40;;;;;;;39.88;25.05;;;;;;;10.24;74.21;101464.59;5020895;28;20519;-64
2021/04/20 06:45:12;;;;;;;39.25;27.13;;;;;;;10.22;74.83;101471.56;5020063;28;20049;-65
2021/04/20 06:47:45;;;;;;;40.85;26.55;;;;;;;10.27;75.14;101466.31;5025049;28;20084;-65
2021/04/20 06:50:15;;;;;;;35.78;25.38;;;;;;;10.39;73.93;101475.81;5031565;28;20407;-64
2021/04/20 06:52:49;;;;;;;37.22;26.42;;;;;;;10.34;73.78;101472.31;5028159;28;20476;-65
2021/04/20 06:55:22;;;;;;;37.45;26.15;;;;;;;10.44;74.10;101470.56;5030608;28;20045;-65
2021/04/20 06:57:53;;;;;;;39.08;27.75;;;;;;;10.55;73.58;101473.97;5030551;28;20060;-67
2021/04/20 07:00:26;;;;;;;38.42;25.30;;;;;;;10.62;73.55;101467.00;5032535;28;20065;-66
2021/04/20 07:03:00;;;;;;;42.17;27.33;;;;;;;10.71;73.60;101465.16;5025849;28;20041;-64
2021/04/20 07:05:32;;;;;;;35.43;24.20;;;;;;;10.79;72.21;101461.63;5016959;28;20050;-65
2021/04/20 07:08:15;;;;;;;31.77;22.83;;;;;;;10.68;73.21;101469.53;5030302;28;20299;-64
2021/04/20 07:10:42;;;;;;;33.75;23.50;;;;;;;10.71;72.64;101464.31;5030630;28;20045;-66
2021/04/20 07:13:19;;;;;;;31.08;21.33;;;;;;;10.82;74.52;101472.00;5025837;28;20050;-62
2021/04/20 07:15:49;;;;;;;35.28;22.08;;;;;;;11.14;74.52;101468.25;5028707;28;20474;-64
2021/04/20 07:18:43;;;;;;;26.98;19.85;;;;;;;11.29;74.10;101464.63;5034811;28;20052;-63
2021/04/20 07:21:20;;;;;;;30.60;20.48;;;;;;;11.58;73.34;101471.28;5024965;28;20065;-59
2021/04/20 07:24:16;;;;;;;29.88;20.88;;;;;;;11.66;71.55;101474.66;5019171;28;20049;-64
2021/04/20 07:26:54;;;;;;;27.13;19.88;;;;;;;11.96;69.51;101464.72;5026922;28;20104;-64
2021/04/20 07:29:34;;;;;;;32.40;21.42;;;;;;;11.88;69.34;101463.97;5026814;28;20046;-63
2021/04/20 07:32:17;;;;;;;27.77;17.83;;;;;;;11.97;72.24;101466.44;5026797;28;20045;-63
2021/04/20 07:38:16;;;;;;;27.60;19.13;;;;;;;12.33;68.16;101464.22;5019646;28;20169;-64
2021/04/20 07:40:49;;;;;;;30.98;20.05;;;;;;;12.26;68.71;101470.41;5019046;28;20049;-65
2021/04/20 07:43:24;;;;;;;24.05;17.73;;;;;;;12.28;68.48;101466.06;5022506;28;20500;-62
2021/04/20 07:45:55;;;;;;;31.88;19.33;;;;;;;12.41;68.73;101465.00;5027518;28;20048;-64
2021/04/20 07:48:34;;;;;;;26.25;19.08;;;;;;;12.53;67.98;101466.53;5022204;28;20424;-65
2021/04/20 07:51:12;;;;;;;23.40;15.73;;;;;;;12.64;67.85;101455.06;5016649;28;20119;-65
2021/04/20 07:53:47;;;;;;;23.30;15.73;;;;;;;12.78;67.02;101454.84;5022859;28;20096;-64
2021/04/20 07:56:20;;;;;;;25.38;17.33;;;;;;;12.98;63.90;101460.56;5027036;28;20406;-63
2021/04/20 07:58:50;;;;;;;23.55;17.17;;;;;;;12.97;62.06;101458.00;5029077;28;20430;-66
2021/04/20 08:01:29;;;;;;;26.77;16.13;;;;;;;12.78;65.93;101453.06;5028474;28;20558;-64
2021/04/20 08:04:04;;;;;;;21.55;14.25;;;;;;;12.94;65.79;101458.91;5026111;28;20108;-65
2021/04/20 08:09:37;;;;;;;22.60;15.32;;;;;;;13.21;63.77;101459.31;5010991;28;20009;-63
2021/04/20 08:15:38;;;;;;;18.88;13.27;;;;;;;13.12;63.13;101455.09;5018375;28;20095;-65
2021/04/20 08:18:11;;;;;;;22.58;15.38;;;;;;;13.14;63.78;101453.34;5024361;28;20130;-63
2021/04/20 08:20:41;;;;;;;23.73;15.10;;;;;;;13.35;63.64;101459.91;5031880;28;20054;-63
2021/04/20 08:23:08;;;;;;;21.67;15.45;;;;;;;13.34;63.32;101447.72;5024494;28;20426;-63
2021/04/20 08:25:39;;;;;;;26.23;15.18;;;;;;;13.30;63.10;101451.28;5027703;28;20506;-64
2021/04/20 08:28:18;;;;;;;18.92;13.82;;;;;;;13.40;64.30;101452.00;5016568;28;20049;-64
2021/04/20 08:30:48;;;;;;;20.48;14.50;;;;;;;13.76;60.86;101456.50;5020968;28;20040;-64
2021/04/20 08:33:18;;;;;;;23.02;15.95;;;;;;;13.93;60.46;101450.94;5025998;28;20179;-63
2021/04/20 08:35:50;;;;;;;23.02;14.77;;;;;;;14.00;60.78;101457.72;5020992;28;20061;-63
2021/04/20 08:38:39;;;;;;;23.30;16.58;;;;;;;14.09;58.88;101448.84;5017860;28;20045;-64
2021/04/20 08:41:09;;;;;;;21.88;16.20;;;;;;;13.80;56.93;101448.56;5022636;28;20101;-64
2021/04/20 08:43:47;;;;;;;19.67;13.10;;;;;;;13.63;61.30;101446.31;5028823;28;20049;-63
2021/04/20 08:46:23;;;;;;;20.33;13.95;;;;;;;13.80;59.38;101447.72;5021353;28;20057;-64
2021/04/20 08:48:58;;;;;;;19.63;13.73;;;;;;;13.93;59.14;101445.69;5024131;28;20068;-63
2021/04/20 08:51:31;;;;;;;19.98;12.15;;;;;;;14.08;58.57;101447.13;5023172;28;20046;-62
2021/04/20 08:54:24;;;;;;;21.05;11.77;;;;;;;14.27;57.83;101448.41;5025216;28;20049;-65
2021/04/20 08:57:01;;;;;;;18.95;13.75;;;;;;;14.37;56.75;101445.56;5020752;28;20407;-62
2021/04/20 08:59:43;;;;;;;17.73;12.40;;;;;;;14.47;56.76;101447.06;5018605;28;20055;-61
2021/04/20 09:02:24;;;;;;;18.92;14.27;;;;;;;14.50;55.62;101441.78;5023739;28;20064;-63
2021/04/20 09:05:04;;;;;;;17.63;12.75;;;;;;;14.48;56.84;101442.69;5032464;28;20363;-61
2021/04/20 09:07:45;;;;;;;18.75;12.85;;;;;;;14.52;56.54;101440.00;5023699;28;20057;-65
2021/04/20 09:10:15;;;;;;;17.38;11.25;;;;;;;14.52;57.67;101440.00;5023765;28;20057;-64
2021/04/20 09:12:45;;;;;;;21.23;13.85;;;;;;;14.62;57.53;101440.59;5022354;28;20566;-62
2021/04/20 09:15:13;;;;;;;18.55;12.30;;;;;;;14.57;58.48;101445.97;5024144;28;20049;-65
2021/04/20 09:17:48;;;;;;;20.23;14.48;;;;;;;14.83;57.80;101443.63;5026624;28;20049;-62
2021/04/20 09:20:22;;;;;;;17.90;11.75;;;;;;;14.86;57.08;101440.94;5026153;28;20095;-62
2021/04/20 09:22:57;;;;;;;20.77;13.93;;;;;;;14.89;53.96;101438.22;5020298;28;20049;-65
2021/04/20 09:25:27;;;;;;;15.13;11.25;;;;;;;14.97;56.47;101440.63;5028131;28;20481;-65
2021/04/20 09:28:02;;;;;;;16.88;12.35;;;;;;;15.08;54.47;101435.97;5025555;28;20503;-64
2021/04/20 09:30:30;;;;;;;;;;;;;;;15.06;53.90;101440.38;5025074;28;20504;-64
2021/04/20 09:33:05;;;;;;;21.77;15.80;;;;;;;14.77;54.25;101440.25;5030504;28;20338;-65
2021/04/20 09:35:33;;;;;;;23.08;13.63;;;;;;;14.68;55.75;101437.00;5024715;28;20072;-62
2021/04/20 09:38:01;;;;;;;24.08;14.85;;;;;;;14.76;55.07;101442.91;5016792;28;20490;-64
2021/04/20 09:40:30;;;;;;;29.88;16.33;;;;;;;14.79;54.86;101445.47;5021710;28;20046;-64
2021/04/20 09:43:04;;;;;;;31.58;16.85;;;;;;;14.93;52.97;101445.94;5023515;28;20072;-62
2021/04/20 09:45:35;;;;;;;25.23;15.40;;;;;;;14.94;55.71;101444.19;5021770;28;20048;-64
2021/04/20 09:48:10;;;;;;;25.25;14.80;;;;;;;14.86;54.84;101441.78;5031014;28;20105;-65
2021/04/20 09:50:40;;;;;;;;;;;;;;;14.77;54.10;101432.38;5023277;28;20057;-63
2021/04/20 09:53:36;;;;;;;20.15;15.13;;;;;;;14.72;53.77;101441.28;5022383;28;20306;-63
2021/04/20 09:56:07;;;;;;;;;;;;;;;14.83;53.41;101436.59;5021985;28;20050;-64
2021/04/20 09:58:39;;;;;;;22.63;14.68;;;;;;;14.88;53.56;101439.97;5030399;28;20689;-65
2021/04/20 10:01:19;;;;;;;19.27;14.07;;;;;;;14.85;53.68;101440.06;5022368;28;20049;-66
2021/04/20 10:03:56;;;;;;;17.17;11.43;;;;;;;14.92;54.39;101436.34;5027992;28;20099;-63
2021/04/20 10:06:54;;;;;;;22.85;16.20;;;;;;;14.97;51.91;101440.63;5023091;28;20045;-64
2021/04/20 10:09:33;;;;;;;24.50;15.55;;;;;;;15.06;53.22;101435.16;5024787;28;20056;-64
2021/04/20 10:12:11;;;;;;;19.00;11.25;;;;;;;15.23;54.52;101435.53;5026458;28;20648;-61
2021/04/20 10:14:49;;;;;;;23.52;15.70;;;;;;;15.54;53.12;101439.06;5021450;28;20057;-64
2021/04/20 10:17:20;;;;;;;26.90;16.63;;;;;;;15.59;51.76;101431.91;5017859;28;20422;-61
2021/04/20 10:19:52;;;;;;;26.33;17.13;;;;;;;15.65;50.64;101430.88;5022921;28;20054;-61
2021/04/20 10:22:27;;;;;;;28.70;17.67;;;;;;;15.51;51.25;101432.16;5022723;28;20053;-64
2021/04/20 10:25:07;;;;;;;;;;;;;;;15.47;52.69;101427.91;5025556;28;20046;-64
2021/04/20 10:27:36;;;;;;;24.48;17.40;;;;;;;15.70;52.41;101429.00;5026722;28;19921;-63
2021/04/20 10:30:06;;;;;;;21.33;13.82;;;;;;;15.62;53.31;101415.25;5035260;28;20053;-64
2021/04/20 10:32:35;;;;;;;21.15;12.27;;;;;;;15.71;52.67;101420.22;5034147;28;20136;-63
2021/04/20 10:35:06;;;;;;;25.73;16.98;;;;;;;16.00;51.33;101416.75;5020856;28;20060;-67
2021/04/20 10:37:37;;;;;;;22.73;14.45;;;;;;;16.15;50.55;101417.19;5025194;28;20517;-64
2021/04/20 10:43:30;;;;;;;24.35;17.05;;;;;;;16.43;47.90;101401.38;5018972;28;20509;-63
2021/04/20 10:45:58;;;;;;;24.90;14.65;;;;;;;16.66;49.31;101406.78;5021763;28;20133;-64
2021/04/20 10:48:27;;;;;;;23.48;16.52;;;;;;;16.75;47.92;101409.94;5021272;28;20045;-64
2021/04/20 10:50:57;;;;;;;22.92;15.73;;;;;;;16.78;47.13;101403.72;5026563;28;20053;-64
2021/04/20 10:53:27;;;;;;;22.15;14.48;;;;;;;17.09;48.69;101402.66;5023866;28;20057;-63
2021/04/20 10:56:00;;;;;;;18.23;13.20;;;;;;;17.28;47.78;101392.34;5025973;28;20057;-64
2021/04/20 10:58:29;;;;;;;19.50;13.27;;;;;;;17.58;48.36;101401.75;5027591;28;20050;-65
2021/04/20 11:00:56;;;;;;;21.95;15.15;;;;;;;17.84;44.78;101391.09;5019642;28;20072;-65
2021/04/20 11:03:25;;;;;;;27.20;17.77;;;;;;;17.76;45.35;101395.81;5037698;28;20686;-64
2021/04/20 11:05:51;;;;;;;24.42;17.27;;;;;;;17.54;45.01;101394.00;5030177;28;20054;-66
2021/04/20 11:08:35;;;;;;;23.83;16.63;;;;;;;17.37;46.17;101391.13;5023109;28;20049;-63
2021/04/20 11:11:01;;;;;;;21.02;15.60;;;;;;;17.60;46.79;101384.16;5034282;28;20053;-65
2021/04/20 11:13:37;;;;;;;23.17;15.27;;;;;;;17.61;45.54;101378.84;5034272;28;20465;-65
2021/04/20 11:16:07;;;;;;;23.17;15.25;;;;;;;17.34;47.08;101383.38;5042954;28;20063;-63
2021/04/20 11:18:37;;;;;;;26.67;17.63;;;;;;;17.56;45.00;101380.78;5022401;28;20053;-63
2021/04/20 11:21:08;;;;;;;26.48;16.42;;;;;;;17.64;45.75;101385.75;5021464;28;20498;-64
2021/04/20 11:23:39;;;;;;;23.02;16.02;;;;;;;17.47;44.88;101375.88;5024000;28;20061;-62
2021/04/20 11:26:11;;;;;;;23.95;15.20;;;;;;;17.61;46.62;101378.84;5030083;28;20054;-62
2021/04/20 11:28:48;;;;;;;21.58;15.50;;;;;;;17.81;45.29;101382.47;5023130;28;20141;-63
2021/04/20 11:31:26;;;;;;;24.48;16.15;;;;;;;17.97;43.65;101385.38;5027697;28;20133;-65
2021/04/20 11:33:59;;;;;;;25.40;18.30;;;;;;;17.86;42.94;101369.97;5020373;28;20507;-64
2021/04/20 11:36:27;;;;;;;26.17;18.13;;;;;;;17.63;43.27;101374.34;5021296;28;20104;-63
2021/04/20 11:38:58;;;;;;;26.10;18.02;;;;;;;17.43;45.42;101366.38;5026568;22;20059;-67
2021/04/20 11:41:27;;;;;;;26.08;17.70;;;;;;;17.42;44.82;101376.06;4991056;28;20057;-66
2021/04/20 11:43:57;;;;;;;26.45;19.13;;;;;;;17.17;43.77;101362.97;4990483;28;20068;-65
2021/04/20 11:46:26;;;;;;;23.60;16.02;;;;;;;17.32;46.45;101367.63;4989119;28;20054;-67
2021/04/20 11:48:57;;;;;;;27.88;19.30;;;;;;;17.51;44.02;101362.53;4994472;28;20045;-66
2021/04/20 11:51:33;;;;;;;26.80;18.25;;;;;;;17.64;44.02;101362.94;4996006;28;20476;-65
2021/04/20 11:54:00;;;;;;;30.63;20.10;;;;;;;17.56;43.24;101365.88;4998932;28;20058;-66
2021/04/20 11:56:27;;;;;;;26.10;19.70;;;;;;;17.49;43.35;101358.28;5001911;28;20050;-66
2021/04/20 11:58:57;;;;;;;28.73;18.85;;;;;;;17.54;43.85;101367.69;4995551;28;20042;-66
2021/04/20 12:01:23;;;;;;;27.20;19.23;;;;;;;17.33;43.00;101364.09;4993909;28;20061;-65